createdAt,value
2022-12-26T00:04:48.369Z,38.4
2022-12-26T00:09:51.619Z,38.3
2022-12-26T00:14:51.955Z,38.2
2022-12-26T00:19:52.522Z,38.2
2022-12-26T00:24:53.084Z,38.1
2022-12-26T00:29:53.388Z,38.1
2022-12-26T00:34:53.686Z,38
2022-12-26T00:39:53.988Z,37.9
2022-12-26T00:44:54.511Z,37.9
2022-12-26T00:50:11.214Z,37.8
2022-12-26T00:55:14.324Z,37.7
2022-12-26T01:00:14.795Z,37.7
2022-12-26T01:05:15.265Z,37.6
2022-12-26T01:10:18.423Z,37.6
2022-12-26T01:15:18.705Z,37.6
2022-12-26T01:20:18.950Z,37.5
2022-12-26T01:25:19.445Z,37.4
2022-12-26T01:30:19.939Z,37.4
2022-12-26T01:35:20.429Z,37.3
2022-12-26T01:40:20.669Z,37.2
2022-12-26T01:45:21.145Z,37.2
2022-12-26T01:50:21.634Z,37.2
2022-12-26T01:55:21.890Z,37.1
2022-12-26T02:00:22.103Z,37.1
2022-12-26T02:05:22.318Z,37
2022-12-26T02:10:22.576Z,36.9
2022-12-26T02:15:23.073Z,36.9
2022-12-26T02:20:23.357Z,36.9
2022-12-26T02:25:23.874Z,36.8
2022-12-26T02:30:24.381Z,36.8
2022-12-26T02:35:24.931Z,36.7
2022-12-26T02:40:25.195Z,36.7
2022-12-26T02:45:25.451Z,36.7
2022-12-26T02:50:25.719Z,36.6
2022-12-26T02:55:25.944Z,36.6
2022-12-26T03:00:26.178Z,36.5
2022-12-26T03:05:26.672Z,36.5
2022-12-26T03:10:26.956Z,36.4
2022-12-26T03:15:27.206Z,36.4
2022-12-26T03:20:27.459Z,36.3
2022-12-26T03:25:27.718Z,36.3
2022-12-26T03:30:28.025Z,36.2
2022-12-26T03:35:28.284Z,36.2
2022-12-26T03:40:28.499Z,36.2
2022-12-26T03:45:28.941Z,36.1
2022-12-26T03:50:29.379Z,36.1
2022-12-26T03:55:29.587Z,36.1
2022-12-26T04:00:29.875Z,36.1
2022-12-26T04:05:30.124Z,36
2022-12-26T04:10:30.594Z,35.9
2022-12-26T04:15:30.859Z,35.9
2022-12-26T04:20:31.338Z,35.9
2022-12-26T04:25:49.333Z,35.8
2022-12-26T04:30:51.780Z,35.8
2022-12-26T04:35:52.055Z,35.7
2022-12-26T04:40:52.269Z,35.7
2022-12-26T04:45:52.481Z,35.7
2022-12-26T04:50:52.969Z,35.7
2022-12-26T04:55:53.224Z,35.6
2022-12-26T05:00:53.696Z,35.6
2022-12-26T05:05:53.948Z,35.6
2022-12-26T05:10:54.197Z,35.5
2022-12-26T05:15:54.756Z,35.5
2022-12-26T05:20:55.228Z,35.4
2022-12-26T05:25:55.700Z,35.4
2022-12-26T05:30:56.129Z,35.4
2022-12-26T05:35:56.400Z,35.4
2022-12-26T05:40:56.857Z,35.3
2022-12-26T05:45:57.153Z,35.3
2022-12-26T05:50:57.371Z,35.2
2022-12-26T05:55:57.569Z,35.2
2022-12-26T06:00:57.785Z,35.2
2022-12-26T06:05:58.017Z,35.2
2022-12-26T06:10:58.237Z,35.1
2022-12-26T06:15:58.545Z,35.1
2022-12-26T06:20:58.815Z,35.1
2022-12-26T06:25:59.046Z,35.1
2022-12-26T06:30:59.323Z,35
2022-12-26T06:35:59.567Z,35
2022-12-26T06:40:59.783Z,34.9
2022-12-26T06:46:01.026Z,34.9
2022-12-26T06:51:01.463Z,34.9
2022-12-26T06:56:01.677Z,34.9
2022-12-26T07:01:01.920Z,34.9
2022-12-26T07:06:02.373Z,34.8
2022-12-26T07:11:02.807Z,34.7
2022-12-26T07:16:03.336Z,34.7
2022-12-26T07:21:03.775Z,34.7
2022-12-26T07:26:04.216Z,34.7
2022-12-26T07:31:04.444Z,34.6
2022-12-26T07:36:04.682Z,34.6
2022-12-26T07:41:05.111Z,34.6
2022-12-26T07:46:05.616Z,34.6
2022-12-26T07:51:06.090Z,34.6
2022-12-26T07:56:06.521Z,34.5
2022-12-26T08:01:07.076Z,34.5
2022-12-26T08:06:07.649Z,34.4
2022-12-26T08:11:08.112Z,34.4
2022-12-26T08:16:08.619Z,33.8
2022-12-26T08:21:10.762Z,32.9
2022-12-26T08:26:12.582Z,32.8
2022-12-26T08:31:14.428Z,32.7
2022-12-26T08:36:16.536Z,32.7
2022-12-26T08:41:18.590Z,32.7
2022-12-26T08:46:20.734Z,32.7
2022-12-26T08:51:22.572Z,32.7
2022-12-26T08:56:24.691Z,32.6
2022-12-26T09:01:26.987Z,32.6
2022-12-26T09:06:28.993Z,32.3
2022-12-26T09:11:31.040Z,32.2
2022-12-26T09:16:37.902Z,32.2
2022-12-26T09:21:40.550Z,32.2
2022-12-26T09:26:42.606Z,32.2
2022-12-26T09:31:44.639Z,32.2
2022-12-26T09:36:46.678Z,32.1
2022-12-26T09:41:48.446Z,30.6
2022-12-26T09:46:50.450Z,30.4
2022-12-26T09:51:52.447Z,30.4
2022-12-26T09:57:02.517Z,30.4
2022-12-26T10:02:04.975Z,30.4
2022-12-26T10:07:06.867Z,30.3
2022-12-26T10:12:08.839Z,30.3
2022-12-26T10:17:10.812Z,30.2
2022-12-26T10:22:13.274Z,30.2
2022-12-26T10:27:15.275Z,30.1
2022-12-26T10:32:17.576Z,30.1
2022-12-26T10:37:20.795Z,30.1
2022-12-26T10:42:22.770Z,30.1
2022-12-26T10:47:24.533Z,30.1
2022-12-26T10:52:26.584Z,30.1
2022-12-26T10:57:28.577Z,30.1
2022-12-26T11:02:30.764Z,30.1
2022-12-26T11:07:32.827Z,30.1
2022-12-26T11:12:34.581Z,29.9
2022-12-26T11:17:36.329Z,29.8
2022-12-26T11:22:38.329Z,29.8
2022-12-26T11:27:40.298Z,29.8
2022-12-26T11:32:42.269Z,29.8
2022-12-26T11:37:44.016Z,29.8
2022-12-26T11:42:45.983Z,29.8
2022-12-26T11:47:47.995Z,29.8
2022-12-26T11:52:50.029Z,29.8
2022-12-26T11:57:55.359Z,29.8
2022-12-26T12:02:58.700Z,29.8
2022-12-26T12:08:00.522Z,29.5
2022-12-26T12:13:03.121Z,29.4
2022-12-26T12:18:05.137Z,29.4
2022-12-26T12:23:06.863Z,29.3
2022-12-26T12:28:08.843Z,29.3
2022-12-26T12:33:10.805Z,29.3
2022-12-26T12:38:12.773Z,29.3
2022-12-26T12:43:14.770Z,29.3
2022-12-26T12:48:16.739Z,29.3
2022-12-26T12:53:18.717Z,29.3
2022-12-26T12:58:20.694Z,29.3
2022-12-26T13:03:22.699Z,29.3
2022-12-26T13:08:24.693Z,29.3
2022-12-26T13:13:26.637Z,29.3
2022-12-26T13:18:28.600Z,29.3
2022-12-26T13:28:36.927Z,29.3
2022-12-26T13:33:38.672Z,29.3
2022-12-26T13:38:40.662Z,29.3
2022-12-26T13:43:42.428Z,29.3
2022-12-26T13:48:44.423Z,29.2
2022-12-26T13:53:46.372Z,29.3
2022-12-26T13:58:48.347Z,29.2
2022-12-26T14:03:50.235Z,29.2
2022-12-26T14:08:55.140Z,29.1
2022-12-26T14:13:57.378Z,27.8
2022-12-26T14:18:59.307Z,26.9
2022-12-26T14:24:01.217Z,26.6
2022-12-26T14:29:02.897Z,26.6
2022-12-26T14:34:08.737Z,26.6
2022-12-26T14:39:12.391Z,26.6
2022-12-26T14:44:14.757Z,26.6
2022-12-26T14:49:16.610Z,26
2022-12-26T14:54:18.489Z,25.8
2022-12-26T14:59:20.363Z,25.8
2022-12-26T15:04:22.222Z,25.8
2022-12-26T15:09:24.063Z,25.8
2022-12-26T15:14:25.930Z,25.4
2022-12-26T15:19:27.794Z,24.6
2022-12-26T15:24:52.759Z,24.4
2022-12-26T15:30:18.076Z,24.5
2022-12-26T15:35:19.648Z,24.5
2022-12-26T15:40:21.456Z,24.5
2022-12-26T15:45:28.072Z,24.5
2022-12-26T15:50:29.762Z,24.6
2022-12-26T15:55:31.603Z,24.6
2022-12-26T16:00:33.439Z,24.6
2022-12-26T16:05:35.253Z,24.6
2022-12-26T16:10:37.057Z,24.6
2022-12-26T16:15:38.950Z,24.6
2022-12-26T16:20:40.757Z,24.2
2022-12-26T16:25:42.564Z,24.1
2022-12-26T16:30:44.449Z,24.1
2022-12-26T16:35:46.239Z,24.1
2022-12-26T16:40:48.062Z,24.1
2022-12-26T16:45:49.942Z,24.1
2022-12-26T16:50:51.765Z,24.1
2022-12-26T16:55:53.547Z,24.1
2022-12-26T17:00:55.779Z,24.1
2022-12-26T17:05:57.719Z,25.3
2022-12-26T17:10:59.645Z,30.1
2022-12-26T17:16:01.725Z,33.2
2022-12-26T17:21:01.997Z,35.9
2022-12-26T17:26:02.642Z,38.7
2022-12-26T17:31:03.057Z,41.4
2022-12-26T17:41:34.354Z,42.1
2022-12-26T17:46:35.059Z,42.3
2022-12-26T17:51:35.863Z,43.6
2022-12-26T17:56:36.624Z,44.1
2022-12-26T18:01:37.477Z,44.1
2022-12-26T18:06:38.006Z,44.1
2022-12-26T18:11:38.768Z,43.9
2022-12-26T18:16:39.513Z,44.2
2022-12-26T18:21:40.303Z,44.6
2022-12-26T18:26:41.072Z,44.6
2022-12-26T18:31:41.851Z,44.4
2022-12-26T18:36:42.340Z,44.2
2022-12-26T18:41:43.092Z,44.2
2022-12-26T18:46:43.863Z,44.2
2022-12-26T18:51:44.551Z,44.1
2022-12-26T18:56:45.217Z,44.1
2022-12-26T19:01:45.991Z,44
2022-12-26T19:06:46.808Z,43.9
2022-12-26T19:11:47.365Z,43.9
2022-12-26T19:16:47.914Z,43.8
2022-12-26T19:21:48.631Z,43.7
2022-12-26T19:26:49.344Z,43.7
2022-12-26T19:31:50.060Z,43.7
2022-12-26T19:36:50.803Z,43.6
2022-12-26T19:41:51.514Z,43.6
2022-12-26T19:47:10.816Z,43.5
2022-12-26T19:52:13.249Z,43.4
2022-12-26T19:57:13.721Z,43.4
2022-12-26T20:02:14.543Z,43.3
2022-12-26T20:07:15.327Z,43.3
2022-12-26T20:12:16.048Z,43.2
2022-12-26T20:17:16.740Z,43.1
2022-12-26T20:22:18.674Z,43
2022-12-26T20:27:19.348Z,42.9
2022-12-26T20:32:20.033Z,42.9
2022-12-26T20:37:20.722Z,42.8
2022-12-26T20:42:21.430Z,42.7
2022-12-26T20:47:21.847Z,42.7
2022-12-26T20:52:22.560Z,42.6
2022-12-26T20:57:23.245Z,42.6
2022-12-26T21:02:23.934Z,42.5
2022-12-26T21:07:24.704Z,42.4
2022-12-26T21:12:25.128Z,42.3
2022-12-26T21:17:25.794Z,42.2
2022-12-26T21:22:26.455Z,42.2
2022-12-26T21:27:27.088Z,42.1
2022-12-26T21:32:27.512Z,42.1
2022-12-26T21:37:27.934Z,41.6
2022-12-26T21:42:28.562Z,41.4
2022-12-26T21:47:29.184Z,41.2
2022-12-26T21:52:29.837Z,41.2
2022-12-26T21:57:30.177Z,41.1
2022-12-26T22:02:30.736Z,40.9
2022-12-26T22:07:31.279Z,40.9
2022-12-26T22:12:31.695Z,40.8
2022-12-26T22:17:32.075Z,40.8
2022-12-26T22:22:32.509Z,40.7
2022-12-26T22:27:32.970Z,40.6
2022-12-26T22:32:33.732Z,40.5
2022-12-26T22:37:34.140Z,40.4
2022-12-26T22:42:34.534Z,40.4
2022-12-26T22:47:35.186Z,40.3
2022-12-26T22:52:35.873Z,40.2
2022-12-26T22:57:36.298Z,40.2
2022-12-26T23:02:37.103Z,40.1
2022-12-26T23:07:37.797Z,40.1
2022-12-26T23:12:38.390Z,40
2022-12-26T23:17:38.753Z,39.9
2022-12-26T23:22:39.353Z,39.9
2022-12-26T23:27:39.968Z,39.8
2022-12-26T23:32:40.341Z,39.7
2022-12-26T23:37:40.693Z,39.7
2022-12-26T23:42:41.301Z,39.6
2022-12-26T23:47:41.907Z,39.6
2022-12-26T23:52:42.506Z,39.5
2022-12-26T23:57:43.085Z,39.4
